createdAt,value
2023-05-20T00:03:54.684Z,82.67
2023-05-20T00:09:00.485Z,82.87
2023-05-20T00:14:06.488Z,81.76
2023-05-20T00:19:12.096Z,81.99
2023-05-20T00:24:16.233Z,82.50
2023-05-20T00:29:23.556Z,85.02
2023-05-20T00:34:27.704Z,84.51
2023-05-20T00:39:32.480Z,83.46
2023-05-20T00:44:38.413Z,81.06
2023-05-20T00:49:42.517Z,80.95
2023-05-20T00:54:47.192Z,80.71
2023-05-20T00:59:53.103Z,81.02
2023-05-20T01:04:57.472Z,80.58
2023-05-20T01:10:01.905Z,81.80
2023-05-20T01:15:11.382Z,82.54
2023-05-20T01:20:16.250Z,83.94
2023-05-20T01:25:22.731Z,83.20
2023-05-20T01:30:31.067Z,82.03
2023-05-20T01:35:36.646Z,80.64
2023-05-20T01:40:44.632Z,82.65
2023-05-20T01:45:48.754Z,83.87
2023-05-20T01:50:53.053Z,83.28
2023-05-20T01:55:58.658Z,82.67
2023-05-20T02:01:04.101Z,82.34
2023-05-20T02:06:08.416Z,82.96
2023-05-20T02:11:14.277Z,85.59
2023-05-20T02:16:18.815Z,85.03
2023-05-20T02:21:23.008Z,85.16
2023-05-20T02:26:29.082Z,84.78
2023-05-20T02:31:33.221Z,84.03
2023-05-20T02:36:40.406Z,84.64
2023-05-20T02:41:46.457Z,84.17
2023-05-20T02:46:50.668Z,83.68
2023-05-20T02:51:54.736Z,83.01
2023-05-20T02:57:00.455Z,83.59
2023-05-20T03:02:05.926Z,84.48
2023-05-20T03:07:10.277Z,83.40
2023-05-20T03:12:15.821Z,84.35
2023-05-20T03:17:19.918Z,85.34
2023-05-20T03:22:24.071Z,84.43
2023-05-20T03:27:30.010Z,82.81
2023-05-20T03:32:34.434Z,82.15
2023-05-20T03:37:38.922Z,81.28
2023-05-20T03:42:44.994Z,83.13
2023-05-20T03:47:50.528Z,81.80
2023-05-20T03:52:56.352Z,81.58
2023-05-20T03:58:04.293Z,81.78
2023-05-20T04:03:10.689Z,81.86
2023-05-20T04:08:15.013Z,80.59
2023-05-20T04:13:20.712Z,84.79
2023-05-20T04:18:25.994Z,82.66
2023-05-20T04:23:30.473Z,81.97
2023-05-20T04:28:37.873Z,80.63
2023-05-20T04:33:44.697Z,80.41
2023-05-20T04:38:50.761Z,80.96
2023-05-20T04:43:59.967Z,80.46
2023-05-20T04:49:04.708Z,80.18
2023-05-20T04:54:09.032Z,78.20
2023-05-20T04:59:14.562Z,78.08
2023-05-20T05:04:19.034Z,78.09
2023-05-20T05:09:23.252Z,77.01
2023-05-20T05:14:31.321Z,78.32
2023-05-20T05:19:35.475Z,80.71
2023-05-20T05:24:40.810Z,80.79
2023-05-20T05:29:46.319Z,78.60
2023-05-20T05:34:50.880Z,78.92
2023-05-20T05:39:55.101Z,78.60
2023-05-20T05:45:00.943Z,76.82
2023-05-20T05:50:08.835Z,77.89
2023-05-20T05:55:14.001Z,76.38
2023-05-20T06:00:23.288Z,77.06
2023-05-20T06:05:29.250Z,75.68
2023-05-20T06:10:34.339Z,73.43
2023-05-20T06:15:42.329Z,70.65
2023-05-20T06:20:46.552Z,69.65
2023-05-20T06:25:52.366Z,68.67
2023-05-20T06:30:58.976Z,67.14
2023-05-20T06:36:05.944Z,64.77
2023-05-20T06:41:10.124Z,63.50
2023-05-20T06:46:15.768Z,62.68
2023-05-20T06:51:25.404Z,59.52
2023-05-20T06:56:29.905Z,59.39
2023-05-20T07:01:35.506Z,57.85
2023-05-20T07:06:41.088Z,56.28
2023-05-20T07:11:46.708Z,55.44
2023-05-20T07:16:52.665Z,55.45
2023-05-20T07:21:57.298Z,55.68
2023-05-20T07:27:34.260Z,53.76
2023-05-20T07:32:42.564Z,51.94
2023-05-20T07:37:47.226Z,51.15
2023-05-20T07:42:51.993Z,50.33
2023-05-20T07:47:58.956Z,50.08
2023-05-20T07:53:03.274Z,50.07
2023-05-20T07:58:11.463Z,45.99
2023-05-20T08:03:20.004Z,47.04
2023-05-20T08:08:44.773Z,44.69
2023-05-20T08:13:59.521Z,45.82
2023-05-20T08:19:08.825Z,45.52
2023-05-20T08:24:13.108Z,45.84
2023-05-20T08:29:17.639Z,45.09
2023-05-20T08:34:23.458Z,44.22
2023-05-20T08:39:29.605Z,45.72
2023-05-20T08:44:36.232Z,43.56
2023-05-20T08:49:41.778Z,42.12
2023-05-20T08:54:47.558Z,39.74
2023-05-20T08:59:51.781Z,39.57
2023-05-20T09:04:58.156Z,40.86
2023-05-20T09:10:02.903Z,42.08
2023-05-20T09:15:09.345Z,41.76
2023-05-20T09:20:15.769Z,39.30
2023-05-20T09:25:23.732Z,39.88
2023-05-20T09:30:28.739Z,38.81
2023-05-20T09:35:37.125Z,40.20
2023-05-20T09:40:43.323Z,40.22
2023-05-20T09:45:48.724Z,41.58
2023-05-20T09:50:55.725Z,41.28
2023-05-20T09:56:00.082Z,40.24
2023-05-20T10:01:04.274Z,40.02
2023-05-20T10:06:37.063Z,40.04
2023-05-20T10:11:50.301Z,38.93
2023-05-20T10:17:07.996Z,39.38
2023-05-20T10:22:14.182Z,39.40
2023-05-20T10:27:19.562Z,38.72
2023-05-20T10:32:28.092Z,40.99
2023-05-20T10:37:34.608Z,44.81
2023-05-20T10:42:40.713Z,43.29
2023-05-20T10:47:56.563Z,45.87
2023-05-20T10:53:09.410Z,51.99
2023-05-20T10:58:17.342Z,54.07
2023-05-20T11:03:23.930Z,54.21
2023-05-20T11:08:32.335Z,53.43
2023-05-20T11:13:36.908Z,51.72
2023-05-20T11:18:41.034Z,50.94
2023-05-20T11:23:46.651Z,50.71
2023-05-20T11:28:51.958Z,48.72
2023-05-20T11:33:57.954Z,48.30
2023-05-20T11:39:03.793Z,44.76
2023-05-20T11:44:11.632Z,43.75
2023-05-20T11:49:16.057Z,42.29
2023-05-20T11:54:24.099Z,41.58
2023-05-20T11:59:29.318Z,41.57
2023-05-20T12:04:35.242Z,39.43
2023-05-20T12:09:40.885Z,39.75
2023-05-20T12:14:46.031Z,39.67
2023-05-20T12:19:50.632Z,39.28
2023-05-20T12:24:56.207Z,39.04
2023-05-20T12:30:00.339Z,38.17
2023-05-20T12:35:04.527Z,40.66
2023-05-20T12:40:14.313Z,40.84
2023-05-20T12:45:18.774Z,41.97
2023-05-20T12:50:23.560Z,42.95
2023-05-20T12:55:29.052Z,41.84
2023-05-20T13:00:33.561Z,40.97
2023-05-20T13:05:38.527Z,41.29
2023-05-20T13:10:44.848Z,41.21
2023-05-20T13:15:50.747Z,41.00
2023-05-20T13:20:54.816Z,41.46
2023-05-20T13:26:00.816Z,41.73
2023-05-20T13:31:07.471Z,41.82
2023-05-20T13:36:12.772Z,42.43
2023-05-20T13:41:18.729Z,39.89
2023-05-20T13:46:23.260Z,40.70
2023-05-20T13:51:27.421Z,40.17
2023-05-20T13:56:34.110Z,40.26
2023-05-20T14:01:41.161Z,40.58
2023-05-20T14:06:45.751Z,39.62
2023-05-20T14:11:52.328Z,39.64
2023-05-20T14:16:56.528Z,39.39
2023-05-20T14:22:01.496Z,40.22
2023-05-20T14:27:07.655Z,40.42
2023-05-20T14:32:13.637Z,40.78
2023-05-20T14:37:18.156Z,40.79
2023-05-20T14:42:23.925Z,41.90
2023-05-20T14:47:28.561Z,41.48
2023-05-20T14:52:36.086Z,42.40
2023-05-20T14:57:41.876Z,42.61
2023-05-20T15:02:46.486Z,43.50
2023-05-20T15:07:51.370Z,43.30
2023-05-20T15:12:57.049Z,44.43
2023-05-20T15:18:01.496Z,44.59
2023-05-20T15:23:06.372Z,44.54
2023-05-20T15:28:13.360Z,44.04
2023-05-20T15:33:21.082Z,43.85
2023-05-20T15:38:25.799Z,46.14
2023-05-20T15:43:31.835Z,46.68
2023-05-20T15:48:37.854Z,46.84
2023-05-20T15:53:42.399Z,47.48
2023-05-20T15:58:48.436Z,47.83
2023-05-20T16:03:57.781Z,48.76
2023-05-20T16:09:02.823Z,48.62
2023-05-20T16:14:08.757Z,49.95
2023-05-20T16:19:12.981Z,50.39
2023-05-20T16:24:18.563Z,51.48
2023-05-20T16:29:24.067Z,53.36
2023-05-20T16:34:28.611Z,52.96
2023-05-20T16:39:32.807Z,53.08
2023-05-20T16:44:39.713Z,52.95
2023-05-20T16:49:44.706Z,53.27
2023-05-20T16:54:50.454Z,53.59
2023-05-20T16:59:58.256Z,53.79
2023-05-20T17:05:02.705Z,54.03
2023-05-20T17:10:08.944Z,54.31
2023-05-20T17:15:15.753Z,54.13
2023-05-20T17:20:20.457Z,56.34
2023-05-20T17:25:24.719Z,58.96
2023-05-20T17:30:30.465Z,59.31
2023-05-20T17:35:35.242Z,61.62
2023-05-20T17:40:40.141Z,60.50
2023-05-20T17:45:45.991Z,60.64
2023-05-20T17:50:50.203Z,63.26
2023-05-20T17:55:54.258Z,64.31
2023-05-20T18:01:00.703Z,66.19
2023-05-20T18:06:06.229Z,69.31
2023-05-20T18:11:10.477Z,70.47
2023-05-20T18:16:16.530Z,72.88
2023-05-20T18:21:21.426Z,73.09
2023-05-20T18:26:26.627Z,76.21
2023-05-20T18:31:32.729Z,77.10
2023-05-20T18:36:37.788Z,77.01
2023-05-20T18:41:47.144Z,77.98
2023-05-20T18:47:00.494Z,80.89
2023-05-20T18:52:04.916Z,81.30
2023-05-20T18:57:10.370Z,81.90
2023-05-20T19:02:17.430Z,81.56
2023-05-20T19:07:22.950Z,81.88
2023-05-20T19:12:27.351Z,81.70
2023-05-20T19:17:35.214Z,81.86
2023-05-20T19:22:41.759Z,85.37
2023-05-20T19:27:46.477Z,83.56
2023-05-20T19:32:53.440Z,81.15
2023-05-20T19:37:58.068Z,83.09
2023-05-20T19:43:02.596Z,82.31
2023-05-20T19:48:08.759Z,82.09
2023-05-20T19:53:13.401Z,83.12
2023-05-20T19:58:20.401Z,82.41
2023-05-20T20:03:26.424Z,80.07
2023-05-20T20:08:31.904Z,80.70
2023-05-20T20:13:37.317Z,81.18
2023-05-20T20:18:43.426Z,83.66
2023-05-20T20:23:47.813Z,83.97
2023-05-20T20:28:51.964Z,84.41
2023-05-20T20:34:00.033Z,85.54
2023-05-20T20:39:05.381Z,86.60
2023-05-20T20:44:11.537Z,86.31
2023-05-20T20:49:17.472Z,83.82
2023-05-20T20:54:22.853Z,84.98
2023-05-20T20:59:27.364Z,84.50
2023-05-20T21:04:35.284Z,83.92
2023-05-20T21:09:39.611Z,82.79
2023-05-20T21:14:44.508Z,81.82
2023-05-20T21:19:51.622Z,80.80
2023-05-20T21:24:58.217Z,81.60
2023-05-20T21:30:02.579Z,84.17
2023-05-20T21:35:10.223Z,83.84
2023-05-20T21:40:14.806Z,82.58
2023-05-20T21:45:19.127Z,82.75
2023-05-20T21:50:24.964Z,83.10
2023-05-20T21:55:29.207Z,82.31
2023-05-20T22:00:34.389Z,81.96
2023-05-20T22:05:39.954Z,81.81
2023-05-20T22:10:44.415Z,80.61
2023-05-20T22:15:49.670Z,78.55
2023-05-20T22:20:56.378Z,77.63
2023-05-20T22:26:00.959Z,79.83
2023-05-20T22:31:05.597Z,80.60
2023-05-20T22:36:13.841Z,81.03
2023-05-20T22:41:18.130Z,81.31
2023-05-20T22:46:22.300Z,81.95
2023-05-20T22:51:28.436Z,82.09
2023-05-20T22:56:33.345Z,83.28
2023-05-20T23:01:38.287Z,82.34
2023-05-20T23:06:45.842Z,81.27
2023-05-20T23:11:49.888Z,81.28
2023-05-20T23:16:54.107Z,82.48
2023-05-20T23:22:00.254Z,81.77
2023-05-20T23:27:06.315Z,82.04
2023-05-20T23:32:10.393Z,82.30
2023-05-20T23:37:16.530Z,81.63
2023-05-20T23:42:22.570Z,80.80
2023-05-20T23:47:30.097Z,80.11
2023-05-20T23:52:35.742Z,78.61
2023-05-20T23:57:39.921Z,80.41
